sensor_id;sensor_type;location;lat;lon;timestamp;P1;durP1;ratioP1;P2;durP2;ratioP2
44704;SDS011;30431;48.520;9.046;2022-12-10T00:01:50;52.47;;;27.17;;
44704;SDS011;30431;48.520;9.046;2022-12-10T00:04:18;51.22;;;26.63;;
44704;SDS011;30431;48.520;9.046;2022-12-10T00:06:46;55.72;;;26.35;;
44704;SDS011;30431;48.520;9.046;2022-12-10T00:09:15;50.67;;;26.52;;
44704;SDS011;30431;48.520;9.046;2022-12-10T00:11:45;48.80;;;26.98;;
44704;SDS011;30431;48.520;9.046;2022-12-10T00:14:12;51.00;;;27.15;;
44704;SDS011;30431;48.520;9.046;2022-12-10T00:16:40;56.70;;;28.52;;
44704;SDS011;30431;48.520;9.046;2022-12-10T00:19:10;54.53;;;29.67;;
44704;SDS011;30431;48.520;9.046;2022-12-10T00:21:37;58.75;;;29.20;;
44704;SDS011;30431;48.520;9.046;2022-12-10T00:24:08;54.53;;;27.02;;
44704;SDS011;30431;48.520;9.046;2022-12-10T00:26:38;54.55;;;27.30;;
44704;SDS011;30431;48.520;9.046;2022-12-10T00:29:09;49.05;;;27.30;;
44704;SDS011;30431;48.520;9.046;2022-12-10T00:31:37;54.65;;;27.08;;
44704;SDS011;30431;48.520;9.046;2022-12-10T00:34:06;57.80;;;29.20;;
44704;SDS011;30431;48.520;9.046;2022-12-10T00:36:38;61.00;;;27.67;;
44704;SDS011;30431;48.520;9.046;2022-12-10T00:39:13;63.63;;;28.95;;
44704;SDS011;30431;48.520;9.046;2022-12-10T00:41:45;63.00;;;28.55;;
44704;SDS011;30431;48.520;9.046;2022-12-10T00:44:13;55.72;;;28.52;;
44704;SDS011;30431;48.520;9.046;2022-12-10T00:46:42;54.78;;;28.05;;
44704;SDS011;30431;48.520;9.046;2022-12-10T00:49:10;59.75;;;28.90;;
44704;SDS011;30431;48.520;9.046;2022-12-10T00:51:37;58.03;;;28.90;;
44704;SDS011;30431;48.520;9.046;2022-12-10T00:54:10;58.80;;;28.60;;
44704;SDS011;30431;48.520;9.046;2022-12-10T00:59:04;53.80;;;27.08;;
44704;SDS011;30431;48.520;9.046;2022-12-10T01:01:38;56.15;;;29.48;;
44704;SDS011;30431;48.520;9.046;2022-12-10T01:04:11;63.13;;;29.77;;
44704;SDS011;30431;48.520;9.046;2022-12-10T01:11:47;55.35;;;27.33;;
44704;SDS011;30431;48.520;9.046;2022-12-10T01:14:21;65.85;;;27.88;;
44704;SDS011;30431;48.520;9.046;2022-12-10T01:16:53;65.35;;;30.50;;
44704;SDS011;30431;48.520;9.046;2022-12-10T01:19:24;65.32;;;29.80;;
44704;SDS011;30431;48.520;9.046;2022-12-10T01:21:53;64.68;;;29.33;;
44704;SDS011;30431;48.520;9.046;2022-12-10T01:24:21;66.88;;;30.00;;
44704;SDS011;30431;48.520;9.046;2022-12-10T01:26:52;68.35;;;29.50;;
44704;SDS011;30431;48.520;9.046;2022-12-10T01:29:21;65.13;;;28.98;;
44704;SDS011;30431;48.520;9.046;2022-12-10T01:31:51;60.95;;;28.27;;
44704;SDS011;30431;48.520;9.046;2022-12-10T01:34:20;65.05;;;29.27;;
44704;SDS011;30431;48.520;9.046;2022-12-10T01:36:51;63.28;;;29.48;;
44704;SDS011;30431;48.520;9.046;2022-12-10T01:39:20;58.55;;;28.15;;
44704;SDS011;30431;48.520;9.046;2022-12-10T01:46:55;57.60;;;28.63;;
44704;SDS011;30431;48.520;9.046;2022-12-10T01:49:25;61.28;;;28.13;;
44704;SDS011;30431;48.520;9.046;2022-12-10T01:52:00;62.03;;;29.60;;
44704;SDS011;30431;48.520;9.046;2022-12-10T01:54:37;65.22;;;28.88;;
44704;SDS011;30431;48.520;9.046;2022-12-10T01:59:46;65.20;;;30.75;;
44704;SDS011;30431;48.520;9.046;2022-12-10T02:07:59;57.30;;;28.23;;
44704;SDS011;30431;48.520;9.046;2022-12-10T02:10:58;62.70;;;29.30;;
44704;SDS011;30431;48.520;9.046;2022-12-10T02:13:45;58.53;;;29.17;;
44704;SDS011;30431;48.520;9.046;2022-12-10T02:16:31;51.75;;;26.90;;
44704;SDS011;30431;48.520;9.046;2022-12-10T02:22:10;60.95;;;27.80;;
44704;SDS011;30431;48.520;9.046;2022-12-10T02:24:40;55.78;;;27.75;;
44704;SDS011;30431;48.520;9.046;2022-12-10T02:27:11;51.92;;;27.88;;
44704;SDS011;30431;48.520;9.046;2022-12-10T02:29:49;55.25;;;27.83;;
44704;SDS011;30431;48.520;9.046;2022-12-10T02:32:23;56.08;;;26.45;;
44704;SDS011;30431;48.520;9.046;2022-12-10T02:34:58;55.83;;;27.70;;
44704;SDS011;30431;48.520;9.046;2022-12-10T02:37:34;60.60;;;28.48;;
44704;SDS011;30431;48.520;9.046;2022-12-10T02:40:10;56.30;;;28.63;;
44704;SDS011;30431;48.520;9.046;2022-12-10T02:42:45;62.33;;;29.17;;
44704;SDS011;30431;48.520;9.046;2022-12-10T02:45:15;52.20;;;27.23;;
44704;SDS011;30431;48.520;9.046;2022-12-10T02:47:45;50.05;;;27.60;;
44704;SDS011;30431;48.520;9.046;2022-12-10T02:50:16;52.92;;;27.95;;
44704;SDS011;30431;48.520;9.046;2022-12-10T02:52:49;58.58;;;27.15;;
44704;SDS011;30431;48.520;9.046;2022-12-10T02:55:18;58.10;;;27.17;;
44704;SDS011;30431;48.520;9.046;2022-12-10T03:00:47;51.95;;;26.85;;
44704;SDS011;30431;48.520;9.046;2022-12-10T03:04:00;54.00;;;27.50;;
44704;SDS011;30431;48.520;9.046;2022-12-10T03:06:27;46.65;;;26.00;;
44704;SDS011;30431;48.520;9.046;2022-12-10T03:09:07;49.33;;;27.85;;
44704;SDS011;30431;48.520;9.046;2022-12-10T03:11:45;47.63;;;26.73;;
44704;SDS011;30431;48.520;9.046;2022-12-10T03:14:18;53.90;;;27.85;;
44704;SDS011;30431;48.520;9.046;2022-12-10T03:16:56;52.30;;;25.42;;
44704;SDS011;30431;48.520;9.046;2022-12-10T03:19:26;46.55;;;25.60;;
44704;SDS011;30431;48.520;9.046;2022-12-10T03:22:06;48.05;;;26.77;;
44704;SDS011;30431;48.520;9.046;2022-12-10T03:24:38;52.67;;;27.80;;
44704;SDS011;30431;48.520;9.046;2022-12-10T03:27:06;46.10;;;26.98;;
44704;SDS011;30431;48.520;9.046;2022-12-10T03:29:44;48.25;;;26.65;;
44704;SDS011;30431;48.520;9.046;2022-12-10T03:32:14;47.10;;;27.60;;
44704;SDS011;30431;48.520;9.046;2022-12-10T03:34:42;49.38;;;28.45;;
44704;SDS011;30431;48.520;9.046;2022-12-10T03:37:10;49.40;;;27.73;;
44704;SDS011;30431;48.520;9.046;2022-12-10T03:39:39;49.45;;;27.55;;
44704;SDS011;30431;48.520;9.046;2022-12-10T03:42:10;48.67;;;28.55;;
44704;SDS011;30431;48.520;9.046;2022-12-10T03:44:40;45.20;;;29.45;;
44704;SDS011;30431;48.520;9.046;2022-12-10T03:47:07;47.45;;;28.17;;
44704;SDS011;30431;48.520;9.046;2022-12-10T03:49:38;46.65;;;28.73;;
44704;SDS011;30431;48.520;9.046;2022-12-10T03:52:06;42.50;;;28.02;;
44704;SDS011;30431;48.520;9.046;2022-12-10T03:54:33;44.95;;;27.83;;
44704;SDS011;30431;48.520;9.046;2022-12-10T03:57:02;45.70;;;28.02;;
44704;SDS011;30431;48.520;9.046;2022-12-10T03:59:31;50.17;;;27.88;;
44704;SDS011;30431;48.520;9.046;2022-12-10T04:01:58;56.55;;;28.92;;
44704;SDS011;30431;48.520;9.046;2022-12-10T04:04:29;55.03;;;29.65;;
44704;SDS011;30431;48.520;9.046;2022-12-10T04:06:59;55.20;;;26.92;;
44704;SDS011;30431;48.520;9.046;2022-12-10T04:09:26;57.53;;;28.75;;
44704;SDS011;30431;48.520;9.046;2022-12-10T04:11:56;58.78;;;29.77;;
44704;SDS011;30431;48.520;9.046;2022-12-10T04:14:26;59.47;;;29.83;;
44704;SDS011;30431;48.520;9.046;2022-12-10T04:17:12;67.70;;;30.37;;
44704;SDS011;30431;48.520;9.046;2022-12-10T04:19:42;58.95;;;29.38;;
44704;SDS011;30431;48.520;9.046;2022-12-10T04:22:09;62.25;;;30.48;;
44704;SDS011;30431;48.520;9.046;2022-12-10T04:24:55;60.47;;;29.80;;
44704;SDS011;30431;48.520;9.046;2022-12-10T04:27:41;57.42;;;29.75;;
44704;SDS011;30431;48.520;9.046;2022-12-10T04:30:11;63.63;;;30.55;;
44704;SDS011;30431;48.520;9.046;2022-12-10T04:32:39;64.65;;;29.90;;
44704;SDS011;30431;48.520;9.046;2022-12-10T04:35:08;69.43;;;31.25;;
44704;SDS011;30431;48.520;9.046;2022-12-10T04:37:38;62.03;;;29.13;;
44704;SDS011;30431;48.520;9.046;2022-12-10T04:40:06;55.88;;;29.45;;
44704;SDS011;30431;48.520;9.046;2022-12-10T04:42:34;54.30;;;28.67;;
44704;SDS011;30431;48.520;9.046;2022-12-10T04:45:01;58.05;;;29.27;;
44704;SDS011;30431;48.520;9.046;2022-12-10T04:47:32;49.60;;;26.13;;
44704;SDS011;30431;48.520;9.046;2022-12-10T04:49:59;53.00;;;28.98;;
44704;SDS011;30431;48.520;9.046;2022-12-10T04:52:26;48.33;;;28.20;;
44704;SDS011;30431;48.520;9.046;2022-12-10T04:54:55;48.67;;;26.38;;
44704;SDS011;30431;48.520;9.046;2022-12-10T04:57:22;49.05;;;28.05;;
44704;SDS011;30431;48.520;9.046;2022-12-10T04:59:49;47.22;;;28.15;;
44704;SDS011;30431;48.520;9.046;2022-12-10T05:02:16;46.67;;;27.63;;
44704;SDS011;30431;48.520;9.046;2022-12-10T05:04:46;46.70;;;27.55;;
44704;SDS011;30431;48.520;9.046;2022-12-10T05:07:17;43.45;;;27.17;;
44704;SDS011;30431;48.520;9.046;2022-12-10T05:09:44;43.60;;;27.92;;
44704;SDS011;30431;48.520;9.046;2022-12-10T05:12:11;41.20;;;25.98;;
44704;SDS011;30431;48.520;9.046;2022-12-10T05:14:40;40.53;;;26.92;;
44704;SDS011;30431;48.520;9.046;2022-12-10T05:17:07;39.13;;;25.88;;
44704;SDS011;30431;48.520;9.046;2022-12-10T05:19:34;39.50;;;24.67;;
44704;SDS011;30431;48.520;9.046;2022-12-10T05:22:01;41.03;;;25.40;;
44704;SDS011;30431;48.520;9.046;2022-12-10T05:24:47;43.63;;;26.02;;
44704;SDS011;30431;48.520;9.046;2022-12-10T05:27:16;40.28;;;27.00;;
44704;SDS011;30431;48.520;9.046;2022-12-10T05:29:43;38.92;;;26.52;;
44704;SDS011;30431;48.520;9.046;2022-12-10T05:32:10;40.13;;;25.92;;
44704;SDS011;30431;48.520;9.046;2022-12-10T05:34:37;39.70;;;26.42;;
44704;SDS011;30431;48.520;9.046;2022-12-10T05:37:06;37.95;;;25.40;;
44704;SDS011;30431;48.520;9.046;2022-12-10T05:39:33;39.90;;;26.17;;
44704;SDS011;30431;48.520;9.046;2022-12-10T05:42:02;36.00;;;25.17;;
44704;SDS011;30431;48.520;9.046;2022-12-10T05:44:31;41.63;;;26.10;;
44704;SDS011;30431;48.520;9.046;2022-12-10T05:47:01;39.70;;;25.52;;
44704;SDS011;30431;48.520;9.046;2022-12-10T05:49:28;40.08;;;25.27;;
44704;SDS011;30431;48.520;9.046;2022-12-10T05:51:57;44.33;;;26.58;;
44704;SDS011;30431;48.520;9.046;2022-12-10T05:54:27;37.00;;;25.02;;
44704;SDS011;30431;48.520;9.046;2022-12-10T05:56:54;43.45;;;25.15;;
44704;SDS011;30431;48.520;9.046;2022-12-10T05:59:23;37.63;;;26.02;;
44704;SDS011;30431;48.520;9.046;2022-12-10T06:01:50;40.17;;;25.95;;
44704;SDS011;30431;48.520;9.046;2022-12-10T06:04:19;37.33;;;24.15;;
44704;SDS011;30431;48.520;9.046;2022-12-10T06:06:46;33.53;;;22.80;;
44704;SDS011;30431;48.520;9.046;2022-12-10T06:09:18;34.55;;;22.98;;
44704;SDS011;30431;48.520;9.046;2022-12-10T06:11:45;37.30;;;24.52;;
44704;SDS011;30431;48.520;9.046;2022-12-10T06:14:12;38.78;;;24.80;;
44704;SDS011;30431;48.520;9.046;2022-12-10T06:16:39;39.45;;;25.65;;
44704;SDS011;30431;48.520;9.046;2022-12-10T06:19:07;35.05;;;24.00;;
44704;SDS011;30431;48.520;9.046;2022-12-10T06:21:37;35.85;;;24.58;;
44704;SDS011;30431;48.520;9.046;2022-12-10T06:24:04;36.50;;;25.00;;
44704;SDS011;30431;48.520;9.046;2022-12-10T06:26:34;40.58;;;25.55;;
44704;SDS011;30431;48.520;9.046;2022-12-10T06:29:02;39.05;;;24.35;;
44704;SDS011;30431;48.520;9.046;2022-12-10T06:31:36;33.72;;;23.50;;
44704;SDS011;30431;48.520;9.046;2022-12-10T06:34:05;39.92;;;25.02;;
44704;SDS011;30431;48.520;9.046;2022-12-10T06:36:32;38.17;;;23.88;;
44704;SDS011;30431;48.520;9.046;2022-12-10T06:39:02;34.08;;;23.55;;
44704;SDS011;30431;48.520;9.046;2022-12-10T06:41:29;36.60;;;23.60;;
44704;SDS011;30431;48.520;9.046;2022-12-10T06:44:01;33.50;;;23.05;;
44704;SDS011;30431;48.520;9.046;2022-12-10T06:46:28;40.10;;;26.83;;
44704;SDS011;30431;48.520;9.046;2022-12-10T06:48:55;199.43;;;115.57;;
44704;SDS011;30431;48.520;9.046;2022-12-10T06:51:23;44.78;;;26.98;;
44704;SDS011;30431;48.520;9.046;2022-12-10T06:53:50;37.95;;;23.25;;
44704;SDS011;30431;48.520;9.046;2022-12-10T06:56:18;33.75;;;23.52;;
44704;SDS011;30431;48.520;9.046;2022-12-10T06:58:45;34.42;;;22.60;;
44704;SDS011;30431;48.520;9.046;2022-12-10T07:01:18;35.85;;;22.77;;
44704;SDS011;30431;48.520;9.046;2022-12-10T07:03:53;33.72;;;22.27;;
44704;SDS011;30431;48.520;9.046;2022-12-10T07:06:25;30.50;;;22.05;;
44704;SDS011;30431;48.520;9.046;2022-12-10T07:08:54;32.53;;;22.50;;
44704;SDS011;30431;48.520;9.046;2022-12-10T07:11:22;39.78;;;22.95;;
44704;SDS011;30431;48.520;9.046;2022-12-10T07:13:50;32.38;;;21.83;;
44704;SDS011;30431;48.520;9.046;2022-12-10T07:16:22;35.90;;;24.50;;
44704;SDS011;30431;48.520;9.046;2022-12-10T07:18:57;35.65;;;24.27;;
44704;SDS011;30431;48.520;9.046;2022-12-10T07:21:26;34.88;;;24.42;;
44704;SDS011;30431;48.520;9.046;2022-12-10T07:24:06;35.38;;;23.25;;
44704;SDS011;30431;48.520;9.046;2022-12-10T07:26:39;37.25;;;23.63;;
44704;SDS011;30431;48.520;9.046;2022-12-10T07:29:14;31.85;;;23.40;;
44704;SDS011;30431;48.520;9.046;2022-12-10T07:31:43;33.70;;;23.67;;
44704;SDS011;30431;48.520;9.046;2022-12-10T07:34:11;33.55;;;22.05;;
44704;SDS011;30431;48.520;9.046;2022-12-10T07:36:38;30.85;;;20.80;;
44704;SDS011;30431;48.520;9.046;2022-12-10T07:39:08;32.92;;;21.63;;
44704;SDS011;30431;48.520;9.046;2022-12-10T07:41:36;32.08;;;21.48;;
44704;SDS011;30431;48.520;9.046;2022-12-10T07:44:06;33.22;;;23.30;;
44704;SDS011;30431;48.520;9.046;2022-12-10T07:46:39;33.78;;;22.73;;
44704;SDS011;30431;48.520;9.046;2022-12-10T07:49:08;33.35;;;22.35;;
44704;SDS011;30431;48.520;9.046;2022-12-10T07:51:35;33.13;;;21.48;;
44704;SDS011;30431;48.520;9.046;2022-12-10T07:54:04;33.45;;;23.25;;
44704;SDS011;30431;48.520;9.046;2022-12-10T07:56:33;31.02;;;21.17;;
44704;SDS011;30431;48.520;9.046;2022-12-10T07:59:00;31.52;;;21.88;;
44704;SDS011;30431;48.520;9.046;2022-12-10T08:01:27;35.10;;;22.38;;
44704;SDS011;30431;48.520;9.046;2022-12-10T08:03:54;30.85;;;21.33;;
44704;SDS011;30431;48.520;9.046;2022-12-10T08:06:26;29.00;;;21.20;;
44704;SDS011;30431;48.520;9.046;2022-12-10T08:08:54;30.10;;;21.20;;
44704;SDS011;30431;48.520;9.046;2022-12-10T08:11:25;29.48;;;21.58;;
44704;SDS011;30431;48.520;9.046;2022-12-10T08:13:55;33.33;;;22.60;;
44704;SDS011;30431;48.520;9.046;2022-12-10T08:16:24;30.90;;;22.50;;
44704;SDS011;30431;48.520;9.046;2022-12-10T08:18:54;34.33;;;24.00;;
44704;SDS011;30431;48.520;9.046;2022-12-10T08:21:23;37.58;;;25.55;;
44704;SDS011;30431;48.520;9.046;2022-12-10T08:23:53;38.10;;;26.08;;
44704;SDS011;30431;48.520;9.046;2022-12-10T08:26:21;30.35;;;22.08;;
44704;SDS011;30431;48.520;9.046;2022-12-10T08:28:53;34.35;;;23.35;;
44704;SDS011;30431;48.520;9.046;2022-12-10T08:31:24;34.05;;;22.45;;
44704;SDS011;30431;48.520;9.046;2022-12-10T08:33:52;33.38;;;22.85;;
44704;SDS011;30431;48.520;9.046;2022-12-10T08:36:20;32.63;;;21.75;;
44704;SDS011;30431;48.520;9.046;2022-12-10T08:38:50;33.67;;;23.45;;
44704;SDS011;30431;48.520;9.046;2022-12-10T08:41:18;33.55;;;21.33;;
44704;SDS011;30431;48.520;9.046;2022-12-10T08:43:47;30.17;;;21.20;;
44704;SDS011;30431;48.520;9.046;2022-12-10T08:49:05;31.58;;;22.00;;
44704;SDS011;30431;48.520;9.046;2022-12-10T08:51:38;34.40;;;22.30;;
44704;SDS011;30431;48.520;9.046;2022-12-10T08:54:07;45.50;;;30.33;;
44704;SDS011;30431;48.520;9.046;2022-12-10T08:56:37;41.22;;;26.52;;
44704;SDS011;30431;48.520;9.046;2022-12-10T08:59:06;37.60;;;26.23;;
44704;SDS011;30431;48.520;9.046;2022-12-10T09:01:33;33.70;;;22.38;;
44704;SDS011;30431;48.520;9.046;2022-12-10T09:04:00;56.30;;;36.22;;
44704;SDS011;30431;48.520;9.046;2022-12-10T09:06:30;29.00;;;21.75;;
44704;SDS011;30431;48.520;9.046;2022-12-10T09:08:57;34.55;;;22.48;;
44704;SDS011;30431;48.520;9.046;2022-12-10T09:11:28;29.80;;;22.25;;
44704;SDS011;30431;48.520;9.046;2022-12-10T09:13:58;30.67;;;22.35;;
44704;SDS011;30431;48.520;9.046;2022-12-10T09:16:33;31.35;;;22.25;;
44704;SDS011;30431;48.520;9.046;2022-12-10T09:19:02;32.85;;;22.60;;
44704;SDS011;30431;48.520;9.046;2022-12-10T09:21:32;32.92;;;22.92;;
44704;SDS011;30431;48.520;9.046;2022-12-10T09:24:02;32.13;;;22.70;;
44704;SDS011;30431;48.520;9.046;2022-12-10T09:26:29;32.08;;;23.58;;
44704;SDS011;30431;48.520;9.046;2022-12-10T09:28:56;34.80;;;22.85;;
44704;SDS011;30431;48.520;9.046;2022-12-10T09:31:26;33.05;;;22.70;;
44704;SDS011;30431;48.520;9.046;2022-12-10T09:33:56;33.47;;;22.40;;
44704;SDS011;30431;48.520;9.046;2022-12-10T09:36:23;34.75;;;22.10;;
44704;SDS011;30431;48.520;9.046;2022-12-10T09:38:58;30.92;;;22.25;;
44704;SDS011;30431;48.520;9.046;2022-12-10T09:44:41;32.58;;;21.17;;
44704;SDS011;30431;48.520;9.046;2022-12-10T09:47:09;32.38;;;20.83;;
44704;SDS011;30431;48.520;9.046;2022-12-10T09:49:40;29.75;;;20.83;;
44704;SDS011;30431;48.520;9.046;2022-12-10T09:52:20;28.60;;;20.33;;
44704;SDS011;30431;48.520;9.046;2022-12-10T09:54:52;28.65;;;20.13;;
44704;SDS011;30431;48.520;9.046;2022-12-10T09:57:33;32.30;;;21.70;;
44704;SDS011;30431;48.520;9.046;2022-12-10T10:00:12;26.50;;;20.08;;
44704;SDS011;30431;48.520;9.046;2022-12-10T10:02:55;31.33;;;19.83;;
44704;SDS011;30431;48.520;9.046;2022-12-10T10:05:31;29.10;;;20.98;;
44704;SDS011;30431;48.520;9.046;2022-12-10T10:08:05;28.67;;;20.38;;
44704;SDS011;30431;48.520;9.046;2022-12-10T10:10:39;25.88;;;19.95;;
44704;SDS011;30431;48.520;9.046;2022-12-10T10:16:20;28.58;;;19.85;;
44704;SDS011;30431;48.520;9.046;2022-12-10T10:18:57;28.58;;;20.08;;
44704;SDS011;30431;48.520;9.046;2022-12-10T10:24:42;28.75;;;19.65;;
44704;SDS011;30431;48.520;9.046;2022-12-10T10:29:49;29.80;;;20.13;;
44704;SDS011;30431;48.520;9.046;2022-12-10T10:35:33;27.48;;;18.65;;
44704;SDS011;30431;48.520;9.046;2022-12-10T10:38:25;28.40;;;19.45;;
44704;SDS011;30431;48.520;9.046;2022-12-10T10:41:01;29.27;;;19.48;;
44704;SDS011;30431;48.520;9.046;2022-12-10T10:43:38;25.48;;;18.45;;
44704;SDS011;30431;48.520;9.046;2022-12-10T10:48:48;28.73;;;20.27;;
44704;SDS011;30431;48.520;9.046;2022-12-10T10:51:20;28.10;;;19.95;;
44704;SDS011;30431;48.520;9.046;2022-12-10T10:53:50;35.13;;;23.65;;
44704;SDS011;30431;48.520;9.046;2022-12-10T10:56:24;32.10;;;20.80;;
44704;SDS011;30431;48.520;9.046;2022-12-10T11:01:58;28.50;;;20.02;;
44704;SDS011;30431;48.520;9.046;2022-12-10T11:04:49;28.33;;;19.83;;
44704;SDS011;30431;48.520;9.046;2022-12-10T11:10:15;28.58;;;18.92;;
44704;SDS011;30431;48.520;9.046;2022-12-10T11:12:44;27.10;;;19.25;;
44704;SDS011;30431;48.520;9.046;2022-12-10T11:17:51;26.95;;;20.00;;
44704;SDS011;30431;48.520;9.046;2022-12-10T11:23:00;29.17;;;19.55;;
44704;SDS011;30431;48.520;9.046;2022-12-10T11:28:40;25.17;;;18.83;;
44704;SDS011;30431;48.520;9.046;2022-12-10T11:34:16;25.80;;;18.90;;
44704;SDS011;30431;48.520;9.046;2022-12-10T11:47:52;28.48;;;19.55;;
44704;SDS011;30431;48.520;9.046;2022-12-10T11:50:51;26.90;;;18.90;;
44704;SDS011;30431;48.520;9.046;2022-12-10T12:06:30;26.85;;;18.50;;
44704;SDS011;30431;48.520;9.046;2022-12-10T12:14:41;19.13;;;14.60;;
44704;SDS011;30431;48.520;9.046;2022-12-10T12:17:17;20.95;;;14.77;;
44704;SDS011;30431;48.520;9.046;2022-12-10T12:19:50;21.20;;;15.05;;
44704;SDS011;30431;48.520;9.046;2022-12-10T12:25:06;23.17;;;17.15;;
44704;SDS011;30431;48.520;9.046;2022-12-10T12:27:46;24.88;;;16.52;;
44704;SDS011;30431;48.520;9.046;2022-12-10T12:30:20;22.80;;;16.23;;
44704;SDS011;30431;48.520;9.046;2022-12-10T12:36:17;20.83;;;14.73;;
44704;SDS011;30431;48.520;9.046;2022-12-10T12:39:00;21.33;;;15.88;;
44704;SDS011;30431;48.520;9.046;2022-12-10T12:46:58;21.33;;;14.68;;
44704;SDS011;30431;48.520;9.046;2022-12-10T12:49:37;19.48;;;13.80;;
44704;SDS011;30431;48.520;9.046;2022-12-10T12:55:01;18.92;;;13.48;;
44704;SDS011;30431;48.520;9.046;2022-12-10T12:57:49;18.52;;;14.00;;
44704;SDS011;30431;48.520;9.046;2022-12-10T13:00:21;20.95;;;13.85;;
44704;SDS011;30431;48.520;9.046;2022-12-10T13:02:55;20.35;;;14.02;;
44704;SDS011;30431;48.520;9.046;2022-12-10T13:05:31;18.45;;;13.85;;
44704;SDS011;30431;48.520;9.046;2022-12-10T13:13:39;22.00;;;14.60;;
44704;SDS011;30431;48.520;9.046;2022-12-10T13:22:07;22.85;;;15.93;;
44704;SDS011;30431;48.520;9.046;2022-12-10T13:24:45;25.63;;;17.10;;
44704;SDS011;30431;48.520;9.046;2022-12-10T13:27:31;20.55;;;15.38;;
44704;SDS011;30431;48.520;9.046;2022-12-10T13:40:36;22.50;;;15.75;;
44704;SDS011;30431;48.520;9.046;2022-12-10T13:48:55;23.30;;;16.88;;
44704;SDS011;30431;48.520;9.046;2022-12-10T13:51:30;18.40;;;14.15;;
44704;SDS011;30431;48.520;9.046;2022-12-10T13:56:56;24.45;;;16.58;;
44704;SDS011;30431;48.520;9.046;2022-12-10T14:05:03;24.52;;;17.80;;
44704;SDS011;30431;48.520;9.046;2022-12-10T14:07:42;25.17;;;18.88;;
44704;SDS011;30431;48.520;9.046;2022-12-10T14:10:14;29.77;;;20.67;;
44704;SDS011;30431;48.520;9.046;2022-12-10T14:12:43;25.40;;;18.13;;
44704;SDS011;30431;48.520;9.046;2022-12-10T14:15:21;23.27;;;17.75;;
44704;SDS011;30431;48.520;9.046;2022-12-10T14:17:51;23.75;;;17.83;;
44704;SDS011;30431;48.520;9.046;2022-12-10T14:20:24;27.95;;;17.90;;
44704;SDS011;30431;48.520;9.046;2022-12-10T14:22:52;22.75;;;17.25;;
44704;SDS011;30431;48.520;9.046;2022-12-10T14:25:41;25.50;;;17.88;;
44704;SDS011;30431;48.520;9.046;2022-12-10T14:28:11;26.00;;;18.02;;
44704;SDS011;30431;48.520;9.046;2022-12-10T14:30:44;24.05;;;15.85;;
44704;SDS011;30431;48.520;9.046;2022-12-10T14:33:15;24.17;;;16.48;;
44704;SDS011;30431;48.520;9.046;2022-12-10T14:35:48;26.35;;;16.63;;
44704;SDS011;30431;48.520;9.046;2022-12-10T14:38:20;25.17;;;17.30;;
44704;SDS011;30431;48.520;9.046;2022-12-10T14:40:58;23.48;;;16.15;;
44704;SDS011;30431;48.520;9.046;2022-12-10T14:43:32;23.83;;;15.57;;
44704;SDS011;30431;48.520;9.046;2022-12-10T14:46:16;23.60;;;15.48;;
44704;SDS011;30431;48.520;9.046;2022-12-10T14:48:52;24.38;;;15.48;;
44704;SDS011;30431;48.520;9.046;2022-12-10T14:51:22;23.15;;;15.52;;
44704;SDS011;30431;48.520;9.046;2022-12-10T14:53:57;22.23;;;14.88;;
44704;SDS011;30431;48.520;9.046;2022-12-10T14:56:36;24.77;;;16.95;;
44704;SDS011;30431;48.520;9.046;2022-12-10T14:59:07;23.08;;;16.10;;
44704;SDS011;30431;48.520;9.046;2022-12-10T15:01:46;23.80;;;16.40;;
44704;SDS011;30431;48.520;9.046;2022-12-10T15:04:18;21.67;;;15.18;;
44704;SDS011;30431;48.520;9.046;2022-12-10T15:06:53;24.73;;;16.60;;
44704;SDS011;30431;48.520;9.046;2022-12-10T15:09:27;24.45;;;15.73;;
44704;SDS011;30431;48.520;9.046;2022-12-10T15:11:55;23.23;;;16.63;;
44704;SDS011;30431;48.520;9.046;2022-12-10T15:14:29;21.25;;;15.95;;
44704;SDS011;30431;48.520;9.046;2022-12-10T15:17:01;24.33;;;16.83;;
44704;SDS011;30431;48.520;9.046;2022-12-10T15:22:00;21.95;;;15.70;;
44704;SDS011;30431;48.520;9.046;2022-12-10T15:24:36;22.05;;;16.23;;
44704;SDS011;30431;48.520;9.046;2022-12-10T15:27:14;23.35;;;15.38;;
44704;SDS011;30431;48.520;9.046;2022-12-10T15:29:44;22.75;;;15.98;;
44704;SDS011;30431;48.520;9.046;2022-12-10T15:32:27;22.55;;;15.35;;
44704;SDS011;30431;48.520;9.046;2022-12-10T15:34:56;23.25;;;16.13;;
44704;SDS011;30431;48.520;9.046;2022-12-10T15:37:27;21.38;;;15.23;;
44704;SDS011;30431;48.520;9.046;2022-12-10T15:40:02;24.33;;;15.80;;
44704;SDS011;30431;48.520;9.046;2022-12-10T15:45:15;23.92;;;16.67;;
44704;SDS011;30431;48.520;9.046;2022-12-10T15:47:46;26.30;;;16.98;;
44704;SDS011;30431;48.520;9.046;2022-12-10T15:50:17;25.92;;;16.80;;
44704;SDS011;30431;48.520;9.046;2022-12-10T15:52:45;23.02;;;16.45;;
44704;SDS011;30431;48.520;9.046;2022-12-10T15:55:16;26.67;;;17.17;;
44704;SDS011;30431;48.520;9.046;2022-12-10T15:57:46;25.00;;;16.58;;
44704;SDS011;30431;48.520;9.046;2022-12-10T16:00:23;28.95;;;18.70;;
44704;SDS011;30431;48.520;9.046;2022-12-10T16:02:56;25.40;;;17.63;;
44704;SDS011;30431;48.520;9.046;2022-12-10T16:08:00;27.13;;;18.38;;
44704;SDS011;30431;48.520;9.046;2022-12-10T16:10:46;23.77;;;17.20;;
44704;SDS011;30431;48.520;9.046;2022-12-10T16:13:28;26.45;;;18.30;;
44704;SDS011;30431;48.520;9.046;2022-12-10T16:16:07;23.30;;;17.40;;
44704;SDS011;30431;48.520;9.046;2022-12-10T16:18:38;28.17;;;18.42;;
44704;SDS011;30431;48.520;9.046;2022-12-10T16:21:10;27.35;;;17.40;;
44704;SDS011;30431;48.520;9.046;2022-12-10T16:23:37;30.23;;;17.50;;
44704;SDS011;30431;48.520;9.046;2022-12-10T16:26:14;24.20;;;18.13;;
44704;SDS011;30431;48.520;9.046;2022-12-10T16:28:42;21.67;;;16.05;;
44704;SDS011;30431;48.520;9.046;2022-12-10T16:31:11;28.25;;;18.45;;
44704;SDS011;30431;48.520;9.046;2022-12-10T16:33:40;26.60;;;17.67;;
44704;SDS011;30431;48.520;9.046;2022-12-10T16:36:07;23.42;;;16.67;;
44704;SDS011;30431;48.520;9.046;2022-12-10T16:38:37;26.23;;;17.70;;
44704;SDS011;30431;48.520;9.046;2022-12-10T16:41:18;25.42;;;17.48;;
44704;SDS011;30431;48.520;9.046;2022-12-10T16:43:51;24.60;;;16.65;;
44704;SDS011;30431;48.520;9.046;2022-12-10T16:46:20;24.63;;;15.00;;
44704;SDS011;30431;48.520;9.046;2022-12-10T16:51:20;23.30;;;15.57;;
44704;SDS011;30431;48.520;9.046;2022-12-10T16:53:52;23.65;;;15.32;;
44704;SDS011;30431;48.520;9.046;2022-12-10T16:56:24;20.83;;;14.93;;
44704;SDS011;30431;48.520;9.046;2022-12-10T16:58:53;26.08;;;16.08;;
44704;SDS011;30431;48.520;9.046;2022-12-10T17:01:24;23.50;;;15.85;;
44704;SDS011;30431;48.520;9.046;2022-12-10T17:03:54;26.60;;;17.08;;
44704;SDS011;30431;48.520;9.046;2022-12-10T17:06:25;22.40;;;15.40;;
44704;SDS011;30431;48.520;9.046;2022-12-10T17:08:55;23.75;;;15.27;;
44704;SDS011;30431;48.520;9.046;2022-12-10T17:11:26;24.60;;;16.27;;
44704;SDS011;30431;48.520;9.046;2022-12-10T17:14:33;22.95;;;15.68;;
44704;SDS011;30431;48.520;9.046;2022-12-10T17:17:01;28.35;;;20.00;;
44704;SDS011;30431;48.520;9.046;2022-12-10T17:19:30;22.75;;;15.18;;
44704;SDS011;30431;48.520;9.046;2022-12-10T17:21:59;21.90;;;14.73;;
44704;SDS011;30431;48.520;9.046;2022-12-10T17:26:54;20.33;;;14.48;;